Terminal Aerodrome Forecast
Issued by NWS La Crosse, WI

Home | Current Version | Previous Version | Text Only | Print | Product List | Glossary On
Versions: 1 2 3 4 5 6 7 8 9 10 11 12 13 14 15 16 17 18 19 20 21 22 23 24 25 26 27 28
000
FTUS43 KARX 192340
TAFRST
TAF
KRST 192340Z 2000/2024 03012KT 2SM -FZDZ BR OVC003
     FM200800 03008KT 1 1/2SM -FZRAPL BR OVC003
     FM201100 36007KT 2SM -FZRA BR OVC003
     FM201400 34007KT 2SM BR OVC005
     FM202100 30013KT P6SM OVC008
     FM202300 30012KT P6SM BKN025=

USA.gov is the U.S. government's official web portal to all federal, state and local government web resources and services.